createdAt,value
2019-03-01T00:02:50.516Z,196.47
2019-03-01T00:07:38.638Z,212.00
2019-03-01T00:12:01.209Z,207.70
2019-03-01T00:16:25.757Z,216.17
2019-03-01T00:21:02.109Z,214.43
2019-03-01T00:25:35.785Z,213.03
2019-03-01T00:30:00.611Z,192.83
2019-03-01T00:34:38.798Z,212.03
2019-03-01T00:38:54.304Z,210.03
2019-03-01T00:43:37.301Z,188.93
2019-03-01T00:47:49.481Z,181.57
2019-03-01T00:52:01.266Z,213.00
2019-03-01T00:56:11.812Z,188.33
2019-03-01T01:00:35.965Z,195.07
2019-03-01T01:04:48.120Z,201.13
2019-03-01T01:08:59.281Z,182.27
2019-03-01T01:13:11.801Z,196.60
2019-03-01T01:17:45.131Z,214.00
2019-03-01T01:21:52.211Z,213.80
2019-03-01T01:26:08.866Z,214.57
2019-03-01T01:30:18.951Z,215.50
2019-03-01T01:34:30.172Z,215.27
2019-03-01T01:38:42.165Z,214.33
2019-03-01T01:42:56.530Z,216.63
2019-03-01T01:47:10.433Z,213.57
2019-03-01T01:51:25.975Z,203.60
2019-03-01T01:55:39.208Z,211.50
2019-03-01T01:59:51.974Z,222.97
2019-03-01T02:04:03.313Z,189.17
2019-03-01T02:08:15.624Z,206.03
2019-03-01T02:12:25.874Z,204.03
2019-03-01T02:16:37.664Z,191.57
2019-03-01T02:20:51.911Z,200.63
2019-03-01T02:25:05.422Z,193.30
2019-03-01T02:29:28.133Z,205.80
2019-03-01T02:33:43.830Z,195.50
2019-03-01T02:38:02.196Z,196.97
2019-03-01T02:42:26.339Z,194.03
2019-03-01T02:46:46.600Z,198.00
2019-03-01T02:50:57.420Z,201.70
2019-03-01T02:55:12.988Z,199.53
2019-03-01T02:59:24.573Z,178.80
2019-03-01T03:03:36.798Z,179.33
2019-03-01T03:07:54.089Z,184.97
2019-03-01T03:12:24.535Z,174.77
2019-03-01T03:16:35.655Z,183.07
2019-03-01T03:20:46.990Z,180.53
2019-03-01T03:25:06.138Z,190.90
2019-03-01T03:29:25.214Z,187.87
2019-03-01T03:33:37.513Z,177.20
2019-03-01T03:37:48.670Z,183.33
2019-03-01T03:42:00.033Z,182.73
2019-03-01T03:46:11.294Z,180.27
2019-03-01T03:50:22.559Z,179.87
2019-03-01T03:54:33.816Z,178.53
2019-03-01T03:58:46.729Z,169.53
2019-03-01T04:02:58.155Z,176.43
2019-03-01T04:07:09.578Z,175.87
2019-03-01T04:11:20.738Z,174.77
2019-03-01T04:15:31.849Z,174.97
2019-03-01T04:19:43.129Z,174.90
2019-03-01T04:23:54.448Z,178.60
2019-03-01T04:28:05.597Z,176.03
2019-03-01T04:32:16.970Z,176.30
2019-03-01T04:36:28.134Z,175.73
2019-03-01T04:40:39.365Z,178.03
2019-03-01T04:44:50.623Z,176.73
2019-03-01T04:49:01.791Z,169.93
2019-03-01T04:53:12.918Z,169.77
2019-03-01T04:57:24.049Z,174.23
2019-03-01T05:01:35.181Z,168.83
2019-03-01T05:05:46.424Z,173.47
2019-03-01T05:09:57.587Z,173.00
2019-03-01T05:14:08.749Z,171.23
2019-03-01T05:18:19.907Z,169.77
2019-03-01T05:22:31.268Z,169.83
2019-03-01T05:26:42.394Z,172.43
2019-03-01T05:30:53.769Z,176.23
2019-03-01T05:35:05.856Z,176.00
2019-03-01T05:39:17.077Z,169.30
2019-03-01T05:43:28.436Z,172.50
2019-03-01T05:47:39.716Z,171.87
2019-03-01T05:51:50.942Z,175.17
2019-03-01T05:56:02.212Z,179.00
2019-03-01T06:00:13.470Z,175.77
2019-03-01T06:04:31.047Z,171.27
2019-03-01T06:08:51.247Z,177.27
2019-03-01T06:13:24.278Z,177.27
2019-03-01T06:17:41.158Z,177.40
2019-03-01T06:22:07.485Z,184.30
2019-03-01T06:26:30.515Z,176.40
2019-03-01T06:31:01.085Z,178.07
2019-03-01T06:35:15.315Z,182.53
2019-03-01T06:39:58.397Z,175.10
2019-03-01T06:44:33.393Z,179.17
2019-03-01T06:48:46.386Z,181.27
2019-03-01T06:52:57.510Z,184.27
2019-03-01T06:57:10.328Z,182.43
2019-03-01T07:01:22.850Z,183.87
2019-03-01T07:05:33.973Z,176.27
2019-03-01T07:09:45.246Z,176.83
2019-03-01T07:13:56.566Z,182.03
2019-03-01T07:18:07.790Z,180.60
2019-03-01T07:22:19.951Z,185.37
2019-03-01T07:26:32.716Z,180.73
2019-03-01T07:30:45.574Z,182.67
2019-03-01T07:34:56.727Z,182.13
2019-03-01T07:39:09.588Z,178.43
2019-03-01T07:43:20.760Z,179.53
2019-03-01T07:47:34.088Z,181.47
2019-03-01T07:51:44.865Z,189.93
2019-03-01T07:55:57.246Z,182.13
2019-03-01T08:00:16.318Z,185.37
2019-03-01T08:04:28.880Z,180.60
2019-03-01T08:08:40.135Z,180.40
2019-03-01T08:12:51.246Z,179.07
2019-03-01T08:17:02.715Z,180.90
2019-03-01T08:21:14.901Z,175.67
2019-03-01T08:25:28.522Z,178.47
2019-03-01T08:29:40.723Z,181.00
2019-03-01T08:33:51.981Z,179.63
2019-03-01T08:38:03.203Z,173.07
2019-03-01T08:42:14.426Z,174.30
2019-03-01T08:46:26.876Z,180.70
2019-03-01T08:50:38.292Z,179.60
2019-03-01T08:54:49.483Z,181.50
2019-03-01T08:59:00.945Z,181.60
2019-03-01T09:03:16.384Z,179.37
2019-03-01T09:07:30.190Z,175.83
2019-03-01T09:11:41.658Z,176.60
2019-03-01T09:15:54.032Z,183.23
2019-03-01T09:20:12.107Z,185.30
2019-03-01T09:24:25.687Z,190.53
2019-03-01T09:28:39.491Z,188.20
2019-03-01T09:32:49.273Z,184.83
2019-03-01T09:37:00.522Z,180.83
2019-03-01T09:41:12.065Z,181.50
2019-03-01T09:45:23.218Z,174.27
2019-03-01T09:49:35.387Z,178.93
2019-03-01T09:53:46.551Z,179.30
2019-03-01T09:57:58.906Z,175.97
2019-03-01T10:02:10.202Z,175.43
2019-03-01T10:06:21.624Z,179.63
2019-03-01T10:10:35.077Z,174.70
2019-03-01T10:14:47.521Z,167.77
2019-03-01T10:18:59.776Z,182.77
2019-03-01T10:23:10.921Z,176.53
2019-03-01T10:27:22.146Z,178.27
2019-03-01T10:31:33.381Z,177.43
2019-03-01T10:35:44.610Z,175.00
2019-03-01T10:39:55.637Z,179.80
2019-03-01T10:44:07.168Z,175.80
2019-03-01T10:48:19.908Z,182.17
2019-03-01T10:52:31.147Z,186.07
2019-03-01T10:56:42.947Z,177.63
2019-03-01T11:00:54.140Z,181.87
2019-03-01T11:05:07.058Z,178.43
2019-03-01T11:09:18.318Z,180.40
2019-03-01T11:13:33.449Z,180.47
2019-03-01T11:17:44.626Z,174.23
2019-03-01T11:21:55.918Z,178.93
2019-03-01T11:26:06.609Z,179.80
2019-03-01T11:30:24.885Z,181.93
2019-03-01T11:34:36.330Z,180.97
2019-03-01T11:38:47.649Z,179.60
2019-03-01T11:42:59.159Z,175.73
2019-03-01T11:47:10.422Z,175.93
2019-03-01T11:51:21.693Z,178.13
2019-03-01T11:55:32.940Z,179.37
2019-03-01T11:59:44.225Z,178.40
2019-03-01T12:03:55.487Z,179.43
2019-03-01T12:08:06.765Z,180.57
2019-03-01T12:12:18.495Z,180.23
2019-03-01T12:16:30.493Z,178.40
2019-03-01T12:20:40.628Z,178.53
2019-03-01T12:24:52.815Z,183.43
2019-03-01T12:29:05.117Z,180.63
2019-03-01T12:33:16.265Z,181.77
2019-03-01T12:37:27.496Z,181.93
2019-03-01T12:41:40.201Z,178.47
2019-03-01T12:45:51.424Z,178.40
2019-03-01T12:50:02.898Z,179.67
2019-03-01T12:54:14.081Z,182.07
2019-03-01T12:58:25.371Z,184.03
2019-03-01T13:02:36.006Z,189.57
2019-03-01T13:06:52.717Z,185.00
2019-03-01T13:11:07.207Z,181.90
2019-03-01T13:15:18.249Z,176.83
2019-03-01T13:19:30.762Z,181.37
2019-03-01T13:23:50.664Z,186.83
2019-03-01T13:28:03.758Z,180.57
2019-03-01T13:32:14.932Z,185.00
2019-03-01T13:36:26.112Z,186.80
2019-03-01T13:40:37.360Z,181.40
2019-03-01T13:44:50.086Z,189.97
2019-03-01T13:49:02.892Z,194.43
2019-03-01T13:53:15.694Z,197.53
2019-03-01T13:57:30.012Z,200.00
2019-03-01T14:01:42.051Z,196.70
2019-03-01T14:05:54.718Z,198.27
2019-03-01T14:10:12.700Z,198.07
2019-03-01T14:14:27.235Z,201.83
2019-03-01T14:18:36.751Z,200.03
2019-03-01T14:22:50.865Z,205.63
2019-03-01T14:27:01.988Z,204.10
2019-03-01T14:31:13.135Z,209.30
2019-03-01T14:35:26.806Z,213.33
2019-03-01T14:39:38.358Z,207.20
2019-03-01T14:43:49.452Z,202.77
2019-03-01T14:48:00.708Z,209.70
2019-03-01T14:52:11.981Z,209.07
2019-03-01T14:56:26.408Z,213.67
2019-03-01T15:00:41.852Z,214.93
2019-03-01T15:04:55.254Z,210.07
2019-03-01T15:09:08.056Z,204.07
2019-03-01T15:13:19.227Z,212.27
2019-03-01T15:17:30.358Z,213.33
2019-03-01T15:21:41.600Z,215.97
2019-03-01T15:25:52.842Z,210.33
2019-03-01T15:30:09.018Z,219.20
2019-03-01T15:34:20.454Z,215.03
2019-03-01T15:38:31.440Z,226.30
2019-03-01T15:42:42.595Z,215.17
2019-03-01T15:46:53.854Z,226.13
2019-03-01T15:51:06.708Z,226.63
2019-03-01T15:55:18.925Z,223.80
2019-03-01T15:59:30.204Z,225.47
2019-03-01T16:03:41.875Z,232.10
2019-03-01T16:07:53.142Z,220.37
2019-03-01T16:12:04.488Z,224.30
2019-03-01T16:16:15.740Z,192.97
2019-03-01T16:20:28.489Z,224.43
2019-03-01T16:24:41.621Z,213.03
2019-03-01T16:28:53.120Z,211.50
2019-03-01T16:33:04.399Z,218.40
2019-03-01T16:37:15.559Z,215.97
2019-03-01T16:41:26.779Z,212.97
2019-03-01T16:45:38.653Z,209.33
2019-03-01T16:49:49.922Z,212.30
2019-03-01T16:53:59.983Z,208.03
2019-03-01T16:58:11.113Z,207.50
2019-03-01T17:02:22.288Z,211.77
2019-03-01T17:06:33.626Z,205.97
2019-03-01T17:10:44.861Z,197.97
2019-03-01T17:14:57.661Z,180.70
2019-03-01T17:19:08.937Z,197.40
2019-03-01T17:23:20.041Z,187.57
2019-03-01T17:27:31.322Z,183.60
2019-03-01T17:31:42.558Z,186.90
2019-03-01T17:35:55.505Z,190.67
2019-03-01T17:40:09.730Z,187.10
2019-03-01T17:44:20.991Z,192.37
2019-03-01T17:48:38.368Z,199.97
2019-03-01T17:52:50.074Z,193.52
2019-03-01T17:57:02.344Z,189.70
2019-03-01T18:01:16.504Z,192.67
2019-03-01T18:05:27.630Z,193.63
2019-03-01T18:09:38.791Z,193.93
2019-03-01T18:13:50.054Z,193.80
2019-03-01T18:18:01.497Z,195.37
2019-03-01T18:22:12.769Z,196.40
2019-03-01T18:26:24.081Z,190.18
2019-03-01T18:30:36.676Z,186.73
2019-03-01T18:34:49.624Z,179.37
2019-03-01T18:39:03.705Z,183.47
2019-03-01T18:43:14.327Z,181.87
2019-03-01T18:47:27.912Z,181.17
2019-03-01T18:51:43.318Z,181.30
2019-03-01T18:55:54.863Z,182.47
2019-03-01T19:00:18.073Z,189.97
2019-03-01T19:04:30.000Z,180.80
2019-03-01T19:08:43.574Z,182.77
2019-03-01T19:12:55.994Z,173.07
2019-03-01T19:17:10.027Z,169.43
2019-03-01T19:21:20.204Z,174.80
2019-03-01T19:25:33.054Z,179.83
2019-03-01T19:29:44.637Z,175.43
2019-03-01T19:33:55.875Z,177.50
2019-03-01T19:38:07.805Z,178.00
2019-03-01T19:42:20.682Z,179.73
2019-03-01T19:46:33.595Z,176.40
2019-03-01T19:50:44.824Z,178.87
2019-03-01T19:54:56.013Z,176.30
2019-03-01T19:59:07.228Z,177.73
2019-03-01T20:03:18.351Z,179.50
2019-03-01T20:07:29.624Z,171.27
2019-03-01T20:11:40.748Z,177.17
2019-03-01T20:15:52.390Z,171.10
2019-03-01T20:20:05.244Z,176.70
2019-03-01T20:24:16.467Z,173.03
2019-03-01T20:28:27.188Z,164.43
2019-03-01T20:32:41.088Z,165.17
2019-03-01T20:36:53.043Z,165.80
2019-03-01T20:41:06.453Z,169.50
2019-03-01T20:45:25.976Z,169.47
2019-03-01T20:49:39.423Z,168.70
2019-03-01T20:53:49.410Z,168.27
2019-03-01T20:58:04.052Z,172.03
2019-03-01T21:02:15.875Z,165.93
2019-03-01T21:06:27.067Z,166.40
2019-03-01T21:10:38.303Z,170.10
2019-03-01T21:14:49.556Z,171.40
2019-03-01T21:19:00.688Z,166.87
2019-03-01T21:23:15.091Z,165.03
2019-03-01T21:27:25.915Z,167.60
2019-03-01T21:31:42.299Z,169.57
2019-03-01T21:36:04.313Z,165.07
2019-03-01T21:40:20.686Z,171.70
2019-03-01T21:44:31.819Z,168.83
2019-03-01T21:48:43.068Z,170.43
2019-03-01T21:52:54.324Z,170.93
2019-03-01T21:57:05.446Z,170.53
2019-03-01T22:01:16.665Z,175.10
2019-03-01T22:05:27.907Z,170.97
2019-03-01T22:09:39.175Z,168.33
2019-03-01T22:13:50.297Z,170.37
2019-03-01T22:18:01.527Z,176.33
2019-03-01T22:22:12.753Z,174.57
2019-03-01T22:26:23.982Z,174.82
2019-03-01T22:30:36.277Z,167.40
2019-03-01T22:34:47.797Z,171.23
2019-03-01T22:38:59.147Z,171.62
2019-03-01T22:43:10.420Z,171.80
2019-03-01T22:47:21.651Z,170.47
2019-03-01T22:51:32.770Z,173.93
2019-03-01T22:55:43.901Z,175.23
2019-03-01T22:59:55.267Z,174.93
2019-03-01T23:04:06.549Z,172.20
2019-03-01T23:08:18.480Z,172.17
2019-03-01T23:12:29.842Z,169.33
2019-03-01T23:16:41.083Z,168.20
2019-03-01T23:20:52.209Z,172.07
2019-03-01T23:25:03.443Z,169.23
2019-03-01T23:29:15.660Z,168.60
2019-03-01T23:33:27.798Z,165.43
2019-03-01T23:37:40.181Z,169.03
2019-03-01T23:41:51.321Z,168.23
2019-03-01T23:46:02.542Z,173.27
2019-03-01T23:50:13.701Z,171.50
2019-03-01T23:54:25.088Z,172.70
2019-03-01T23:58:35.671Z,174.20
